KMFD/MFD METAR and TAF weather

Enter ICAO airport designator
Station Type Date Time Source
KMFD METAR 2020/09/19 19:52 UTC NOAA

KMFD 191952Z AUTO 04005KT 10SM CLR 18/04 A3034 RMK AO2 SLP277 T01780044


Station Type Date Time Source
KMFD Decoded METAR 2020/09/19 19:52 UTC NOAA

LAHM MUNICIPAL AIRPORT, OH, United States (KMFD) 40-49N 082-31W 395M
Sep 19, 2020 - 03:52 PM EDT / 2020.09.19 1952 UTC
Wind: from the NE (040 degrees) at 6 MPH (5 KT):0
Visibility: 10 mile(s):0
Sky conditions: clear
Temperature: 64.0 F (17.8 C)
Dew Point: 39.9 F (4.4 C)
Relative Humidity: 41%
Pressure (altimeter): 30.34 in. Hg (1027 hPa)
ob: KMFD 191952Z AUTO 04005KT 10SM CLR 18/04 A3034 RMK AO2 SLP277 T01780044
cycle: 20

Station Type Date Time Source
KMFD TAF 2020/09/19 18:42 UTC NOAA

KMFD 191739Z 1918/2018 06008KT P6SM SKC

Example: see airport list